アダック島 の空港の天気 - METARとTAF

アダック空港 ( PADK / ADK ) - アメリカ アラスカ州アダック島
飛行場実況気象(Metar)
観測時間02/17 05:56 AKST (02/17 14:56 UTC)
風向・風速南東 12m/s 瞬間風速19m/s
視程800m
天気現象雪 霧
全天を覆う雲 雲底高度 180m
気温0.6℃
湿度92%
気圧996.2hPa
METARPADK 171456Z AUTO 13024G37KT 1/2SM SN FG OVC006 01/M01 A2942 RMK AO2 PK WND 13041/1433 PRESFR SLP962 P0003 60004 T00061006 58077 FZRANO
過去の天気等 Google飛行場航空写真 Wunderground天気予報

過去48時間のMETAR

飛行場予報(TAF)
データがありません